Time,TemperatureF,DewpointF,PressureIn,WindDirection,WindDirectionDegrees,WindSpeedMPH,WindSpeedGustMPH,Humidity,HourlyPrecipIn,Conditions,Clouds,dailyrainin,SoftwareType,DateUTC
2013-03-02 00:01:00,27.0,20.7,30.14,NNW,338,0.5,0.0,77,0.00,RA,BKN,0.00,WeatherDisplay:10.37,2013-03-02 06:01:00,
2013-03-02 00:06:00,27.0,20.7,30.14,NNW,338,0.0,1.1,77,0.00,RA,BKN,0.00,WeatherDisplay:10.37,2013-03-02 06:06:00,
2013-03-02 00:11:00,27.0,20.7,30.14,North,0,0.5,0.5,77,0.00,CLR,BKN,0.00,WeatherDisplay:10.37,2013-03-02 06:11:00,
2013-03-02 00:16:00,27.0,20.4,30.14,North,0,0.2,0.2,76,0.00,CLR,BKN,0.00,WeatherDisplay:10.37,2013-03-02 06:16:00,
2013-03-02 00:21:00,27.0,20.4,30.14,NNW,338,0.0,1.1,76,0.00,CLR,BKN,0.00,WeatherDisplay:10.37,2013-03-02 06:21:00,
2013-03-02 00:26:00,27.0,20.4,30.13,North,0,0.5,0.5,76,0.00,CLR,BKN,0.00,WeatherDisplay:10.37,2013-03-02 06:26:00,
2013-03-02 00:31:00,27.0,20.4,30.13,NNW,338,0.0,1.1,76,0.00,CLR,BKN,0.00,WeatherDisplay:10.37,2013-03-02 06:31:00,
2013-03-02 00:36:00,27.0,20.4,30.13,North,0,2.2,2.3,76,0.00,CLR,BKN,0.00,WeatherDisplay:10.37,2013-03-02 06:36:00,
2013-03-02 00:41:00,27.0,20.1,30.13,North,0,0.2,1.1,75,0.00,CLR,BKN,0.00,WeatherDisplay:10.37,2013-03-02 06:41:00,
2013-03-02 00:46:00,27.0,20.4,30.13,North,0,0.0,0.0,76,0.00,CLR,BKN,0.00,WeatherDisplay:10.37,2013-03-02 06:46:00,
2013-03-02 00:51:00,27.0,20.4,30.13,North,0,0.0,1.1,76,0.00,CLR,BKN,0.00,WeatherDisplay:10.37,2013-03-02 06:51:00,
2013-03-02 00:56:00,27.0,20.4,30.13,NNW,338,0.0,0.0,76,0.00,CLR,BKN,0.00,WeatherDisplay:10.37,2013-03-02 06:56:00,
2013-03-02 01:01:00,26.8,20.2,30.13,NNW,338,0.2,0.2,76,0.00,CLR,BKN,0.00,WeatherDisplay:10.37,2013-03-02 07:01:00,
2013-03-02 01:06:00,27.0,20.7,30.13,NNW,338,0.7,1.1,77,0.00,CLR,BKN,0.00,WeatherDisplay:10.37,2013-03-02 07:06:00,
2013-03-02 01:11:00,26.8,20.5,30.14,NNE,22,0.2,0.2,77,0.00,CLR,BKN,0.00,WeatherDisplay:10.37,2013-03-02 07:11:00,
2013-03-02 01:16:00,26.8,20.5,30.13,NNW,338,0.0,1.1,77,0.00,CLR,BKN,0.00,WeatherDisplay:10.37,2013-03-02 07:16:00,
2013-03-02 01:21:00,26.8,20.5,30.14,NNW,338,0.0,0.0,77,0.00,CLR,BKN,0.00,WeatherDisplay:10.37,2013-03-02 07:21:00,
2013-03-02 01:26:00,26.8,20.5,30.14,NNW,338,0.5,0.5,77,0.00,CLR,BKN,0.00,WeatherDisplay:10.37,2013-03-02 07:26:00,
2013-03-02 01:31:00,26.6,20.4,30.14,NNW,338,0.0,1.1,77,0.00,CLR,BKN,0.00,WeatherDisplay:10.37,2013-03-02 07:31:00,
2013-03-02 01:36:00,26.6,20.4,30.14,NNW,338,0.0,0.0,77,0.00,CLR,BKN,0.00,WeatherDisplay:10.37,2013-03-02 07:36:00,
2013-03-02 01:41:00,26.8,20.8,30.14,NNW,338,0.0,0.0,78,0.00,CLR,BKN,0.00,WeatherDisplay:10.37,2013-03-02 07:41:00,
2013-03-02 01:46:00,26.6,20.7,30.14,NW,315,1.4,1.4,78,0.00,CLR,BKN,0.00,WeatherDisplay:10.37,2013-03-02 07:46:00,
2013-03-02 01:51:00,26.8,20.8,30.13,NNW,338,0.0,0.0,78,0.00,CLR,BKN,0.00,WeatherDisplay:10.37,2013-03-02 07:51:00,
2013-03-02 01:56:00,26.6,20.7,30.13,NNW,338,0.0,0.0,78,0.00,CLR,BKN,0.00,WeatherDisplay:10.37,2013-03-02 07:56:00,
2013-03-02 02:01:00,26.6,20.7,30.13,NNW,338,0.0,0.0,78,0.00,CLR,BKN,0.00,WeatherDisplay:10.37,2013-03-02 08:01:00,
2013-03-02 02:06:00,26.6,20.7,30.13,NNW,338,0.0,0.5,78,0.00,CLR,BKN,0.00,WeatherDisplay:10.37,2013-03-02 08:06:00,
2013-03-02 02:11:00,26.6,20.7,30.13,NNW,338,0.2,0.2,78,0.00,CLR,BKN,0.00,WeatherDisplay:10.37,2013-03-02 08:11:00,
2013-03-02 02:16:00,26.6,21.0,30.13,North,0,0.0,0.0,79,0.00,CLR,BKN,0.00,WeatherDisplay:10.37,2013-03-02 08:16:00,
2013-03-02 02:21:00,26.6,21.0,30.13,NNW,338,0.0,0.0,79,0.00,CLR,BKN,0.00,WeatherDisplay:10.37,2013-03-02 08:21:00,
2013-03-02 02:26:00,26.4,20.8,30.13,North,0,0.0,0.0,79,0.00,CLR,BKN,0.00,WeatherDisplay:10.37,2013-03-02 08:26:00,
2013-03-02 02:31:00,26.6,20.7,30.13,North,0,0.0,0.0,78,0.00,CLR,BKN,0.00,WeatherDisplay:10.37,2013-03-02 08:31:00,
2013-03-02 02:36:00,26.2,20.3,30.13,NNW,338,0.0,0.0,78,0.00,CLR,BKN,0.00,WeatherDisplay:10.37,2013-03-02 08:36:00,
2013-03-02 02:41:00,26.2,20.6,30.13,NNW,338,0.0,0.0,79,0.00,CLR,BKN,0.00,WeatherDisplay:10.37,2013-03-02 08:41:00,
2013-03-02 02:46:00,26.2,20.6,30.13,NNW,338,0.2,0.2,79,0.00,CLR,BKN,0.00,WeatherDisplay:10.37,2013-03-02 08:46:00,
2013-03-02 02:51:00,26.2,20.6,30.12,NNW,338,0.0,1.1,79,0.00,CLR,BKN,0.00,WeatherDisplay:10.37,2013-03-02 08:51:00,
2013-03-02 02:56:00,26.2,20.6,30.12,North,0,0.0,0.0,79,0.00,CLR,BKN,0.00,WeatherDisplay:10.37,2013-03-02 08:56:00,
2013-03-02 03:01:00,26.2,20.6,30.12,North,0,0.0,0.0,79,0.00,CLR,BKN,0.00,WeatherDisplay:10.37,2013-03-02 09:01:00,
2013-03-02 03:06:00,26.2,20.6,30.12,North,0,0.0,0.0,79,0.00,CLR,BKN,0.00,WeatherDisplay:10.37,2013-03-02 09:06:00,
2013-03-02 03:11:00,26.2,20.6,30.13,NNW,338,0.0,0.0,79,0.00,CLR,BKN,0.00,WeatherDisplay:10.37,2013-03-02 09:11:00,
2013-03-02 03:16:00,26.4,20.8,30.12,NNW,338,0.2,0.2,79,0.00,CLR,BKN,0.00,WeatherDisplay:10.37,2013-03-02 09:16:00,
2013-03-02 03:21:00,26.4,20.8,30.12,NNW,338,0.0,1.1,79,0.00,CLR,BKN,0.00,WeatherDisplay:10.37,2013-03-02 09:21:00,
2013-03-02 03:26:00,26.4,20.8,30.12,North,0,0.0,0.0,79,0.00,CLR,BKN,0.00,WeatherDisplay:10.37,2013-03-02 09:26:00,
2013-03-02 03:31:00,26.4,20.8,30.12,NW,315,0.0,0.0,79,0.00,CLR,BKN,0.00,WeatherDisplay:10.37,2013-03-02 09:31:00,
2013-03-02 03:36:00,26.4,20.8,30.12,NNW,338,1.1,0.0,79,0.00,CLR,BKN,0.00,WeatherDisplay:10.37,2013-03-02 09:36:00,
2013-03-02 03:41:00,26.4,20.8,30.12,North,0,0.0,0.0,79,0.00,CLR,BKN,0.00,WeatherDisplay:10.37,2013-03-02 09:41:00,
2013-03-02 03:46:00,26.4,20.8,30.12,NNW,338,0.0,0.0,79,0.00,CLR,BKN,0.00,WeatherDisplay:10.37,2013-03-02 09:46:00,
2013-03-02 03:51:00,26.6,21.0,30.12,NW,315,0.0,1.1,79,0.00,CLR,BKN,0.00,WeatherDisplay:10.37,2013-03-02 09:51:00,
2013-03-02 03:56:00,26.2,20.6,30.12,NNW,338,0.2,1.1,79,0.00,CLR,BKN,0.00,WeatherDisplay:10.37,2013-03-02 09:56:00,
2013-03-02 04:01:00,26.2,20.6,30.12,North,0,0.5,1.1,79,0.00,CLR,BKN,0.00,WeatherDisplay:10.37,2013-03-02 10:01:00,
2013-03-02 04:06:00,26.1,20.4,30.12,North,0,0.0,0.0,79,0.00,CLR,BKN,0.00,WeatherDisplay:10.37,2013-03-02 10:06:00,
2013-03-02 04:11:00,26.1,20.4,30.12,North,0,0.0,1.1,79,0.00,CLR,BKN,0.00,WeatherDisplay:10.37,2013-03-02 10:11:00,
2013-03-02 04:16:00,25.9,20.3,30.12,North,0,0.7,1.1,79,0.00,CLR,BKN,0.00,WeatherDisplay:10.37,2013-03-02 10:16:00,
2013-03-02 04:21:00,25.9,20.3,30.12,North,0,0.0,0.0,79,0.00,CLR,BKN,0.00,WeatherDisplay:10.37,2013-03-02 10:21:00,
2013-03-02 04:26:00,25.7,20.1,30.12,North,0,0.0,0.0,79,0.00,CLR,BKN,0.00,WeatherDisplay:10.37,2013-03-02 10:26:00,
2013-03-02 04:31:00,25.9,20.3,30.12,NNW,338,0.7,1.1,79,0.00,CLR,BKN,0.00,WeatherDisplay:10.37,2013-03-02 10:31:00,
2013-03-02 04:36:00,25.9,20.3,30.12,North,0,0.5,1.1,79,0.00,CLR,BKN,0.00,WeatherDisplay:10.37,2013-03-02 10:36:00,
2013-03-02 04:41:00,25.7,20.1,30.12,North,0,0.2,1.1,79,0.00,CLR,BKN,0.00,WeatherDisplay:10.37,2013-03-02 10:41:00,
2013-03-02 04:46:00,25.7,20.1,30.13,North,0,0.0,0.0,79,0.00,CLR,BKN,0.00,WeatherDisplay:10.37,2013-03-02 10:46:00,
2013-03-02 04:51:00,25.5,19.9,30.13,North,0,0.2,0.2,79,0.00,CLR,BKN,0.00,WeatherDisplay:10.37,2013-03-02 10:51:00,
2013-03-02 04:56:00,25.5,19.9,30.13,North,0,0.0,0.0,79,0.00,CLR,BKN,0.00,WeatherDisplay:10.37,2013-03-02 10:56:00,
2013-03-02 05:01:00,25.5,19.9,30.13,North,0,0.0,0.0,79,0.00,CLR,BKN,0.00,WeatherDisplay:10.37,2013-03-02 11:01:00,
2013-03-02 05:06:00,25.5,19.9,30.13,North,0,0.0,0.0,79,0.00,CLR,BKN,0.00,WeatherDisplay:10.37,2013-03-02 11:06:00,
2013-03-02 05:11:00,25.3,19.7,30.13,North,0,0.0,1.1,79,0.00,CLR,BKN,0.00,WeatherDisplay:10.37,2013-03-02 11:11:00,
2013-03-02 05:16:00,25.5,20.2,30.13,NNW,338,0.0,0.0,80,0.00,CLR,BKN,0.00,WeatherDisplay:10.37,2013-03-02 11:16:00,
2013-03-02 05:21:00,25.5,20.2,30.13,NNW,338,0.0,0.0,80,0.00,CLR,BKN,0.00,WeatherDisplay:10.37,2013-03-02 11:21:00,
2013-03-02 05:26:00,25.5,20.2,30.13,NNW,338,0.0,0.0,80,0.00,CLR,BKN,0.00,WeatherDisplay:10.37,2013-03-02 11:26:00,
2013-03-02 05:31:00,25.5,19.9,30.13,NW,315,0.0,0.0,79,0.00,CLR,BKN,0.00,WeatherDisplay:10.37,2013-03-02 11:31:00,
2013-03-02 05:36:00,25.3,19.7,30.13,North,0,0.0,0.0,79,0.00,CLR,BKN,0.00,WeatherDisplay:10.37,2013-03-02 11:36:00,
2013-03-02 05:41:00,25.0,19.4,30.13,North,0,1.6,1.6,79,0.00,CLR,BKN,0.00,WeatherDisplay:10.37,2013-03-02 11:41:00,
2013-03-02 05:46:00,24.8,19.2,30.13,NNW,338,0.2,0.2,79,0.00,CLR,BKN,0.00,WeatherDisplay:10.37,2013-03-02 11:46:00,
2013-03-02 05:51:00,24.4,18.9,30.13,NNW,338,0.0,0.0,79,0.00,CLR,BKN,0.00,WeatherDisplay:10.37,2013-03-02 11:51:00,
2013-03-02 05:56:00,24.4,18.9,30.13,NNW,338,0.0,0.0,79,0.00,CLR,BKN,0.00,WeatherDisplay:10.37,2013-03-02 11:56:00,
2013-03-02 06:01:00,24.4,18.9,30.13,North,0,0.2,0.2,79,0.00,CLR,BKN,0.00,WeatherDisplay:10.37,2013-03-02 12:01:00,
2013-03-02 06:06:00,24.4,18.9,30.14,NNW,338,0.0,0.0,79,0.00,CLR,BKN,0.00,WeatherDisplay:10.37,2013-03-02 12:06:00,
2013-03-02 06:11:00,24.4,18.9,30.13,North,0,0.0,0.0,79,0.00,CLR,BKN,0.00,WeatherDisplay:10.37,2013-03-02 12:11:00,
2013-03-02 06:16:00,24.3,18.7,30.14,North,0,0.0,0.0,79,0.00,CLR,BKN,0.00,WeatherDisplay:10.37,2013-03-02 12:16:00,
2013-03-02 06:21:00,24.1,18.5,30.14,NW,315,0.0,0.0,79,0.00,CLR,BKN,0.00,WeatherDisplay:10.37,2013-03-02 12:21:00,
2013-03-02 06:26:00,24.1,18.5,30.14,NNW,338,0.0,0.0,79,0.00,CLR,BKN,0.00,WeatherDisplay:10.37,2013-03-02 12:26:00,
2013-03-02 06:31:00,24.1,18.5,30.14,NW,315,0.0,0.0,79,0.00,CLR,BKN,0.00,WeatherDisplay:10.37,2013-03-02 12:31:00,
2013-03-02 06:36:00,24.1,18.5,30.14,NNW,338,0.0,0.0,79,0.00,CLR,BKN,0.00,WeatherDisplay:10.37,2013-03-02 12:36:00,
2013-03-02 06:41:00,23.9,18.3,30.14,NNW,338,0.2,0.2,79,0.00,CLR,BKN,0.00,WeatherDisplay:10.37,2013-03-02 12:41:00,
2013-03-02 06:46:00,23.7,18.2,30.14,NNW,338,0.0,0.0,79,0.00,CLR,BKN,0.00,WeatherDisplay:10.37,2013-03-02 12:46:00,
2013-03-02 06:51:00,23.7,18.2,30.14,NNW,338,0.0,0.0,79,0.00,CLR,BKN,0.00,WeatherDisplay:10.37,2013-03-02 12:51:00,
2013-03-02 06:56:00,23.7,17.9,30.15,NNW,338,0.0,0.0,78,0.00,CLR,BKN,0.00,WeatherDisplay:10.37,2013-03-02 12:56:00,
2013-03-02 07:01:00,23.7,17.9,30.15,North,0,0.0,1.1,78,0.00,CLR,BKN,0.00,WeatherDisplay:10.37,2013-03-02 13:01:00,
2013-03-02 07:06:00,23.5,17.7,30.15,North,0,0.0,0.0,78,0.00,CLR,BKN,0.00,WeatherDisplay:10.37,2013-03-02 13:06:00,
2013-03-02 07:11:00,23.5,17.7,30.15,North,0,0.0,0.0,78,0.00,CLR,BKN,0.00,WeatherDisplay:10.37,2013-03-02 13:11:00,
2013-03-02 07:16:00,23.4,17.5,30.15,North,0,0.7,1.1,78,0.00,CLR,BKN,0.00,WeatherDisplay:10.37,2013-03-02 13:16:00,
2013-03-02 07:21:00,23.4,17.5,30.15,North,0,0.0,0.0,78,0.00,CLR,BKN,0.00,WeatherDisplay:10.37,2013-03-02 13:21:00,
2013-03-02 07:26:00,23.5,17.7,30.15,North,0,0.0,0.0,78,0.00,CLR,BKN,0.00,WeatherDisplay:10.37,2013-03-02 13:26:00,
2013-03-02 07:31:00,23.5,17.7,30.16,NNW,338,0.0,0.0,78,0.00,CLR,BKN,0.00,WeatherDisplay:10.37,2013-03-02 13:31:00,
2013-03-02 07:36:00,23.7,17.9,30.16,North,0,0.5,0.5,78,0.00,CLR,BKN,0.00,WeatherDisplay:10.37,2013-03-02 13:36:00,
2013-03-02 07:41:00,23.7,17.9,30.16,NNW,338,0.0,0.0,78,0.00,CLR,BKN,0.00,WeatherDisplay:10.37,2013-03-02 13:41:00,
2013-03-02 07:46:00,23.9,18.3,30.16,North,0,0.0,0.0,79,0.00,CLR,BKN,0.00,WeatherDisplay:10.37,2013-03-02 13:46:00,
2013-03-02 07:51:00,23.9,18.0,30.16,North,0,0.2,0.2,78,0.00,CLR,BKN,0.00,WeatherDisplay:10.37,2013-03-02 13:51:00,
2013-03-02 07:56:00,24.1,18.2,30.16,North,0,0.2,0.2,78,0.00,CLR,BKN,0.00,WeatherDisplay:10.37,2013-03-02 13:56:00,
2013-03-02 08:01:00,24.3,18.4,30.16,North,0,0.5,0.5,78,0.00,CLR,BKN,0.00,WeatherDisplay:10.37,2013-03-02 14:01:00,
2013-03-02 08:06:00,24.4,18.6,30.16,NNW,338,0.0,0.0,78,0.00,CLR,BKN,0.00,WeatherDisplay:10.37,2013-03-02 14:06:00,
2013-03-02 08:11:00,24.4,18.3,30.16,NNW,338,0.0,0.0,77,0.00,CLR,BKN,0.00,WeatherDisplay:10.37,2013-03-02 14:11:00,
2013-03-02 08:16:00,24.6,18.4,30.16,NW,315,0.0,0.0,77,0.00,CLR,BKN,0.00,WeatherDisplay:10.37,2013-03-02 14:16:00,
2013-03-02 08:21:00,24.8,18.6,30.16,NNW,338,0.0,0.0,77,0.00,CLR,BKN,0.00,WeatherDisplay:10.37,2013-03-02 14:21:00,
2013-03-02 08:26:00,24.8,18.6,30.16,NNW,338,0.0,0.0,77,0.00,CLR,BKN,0.00,WeatherDisplay:10.37,2013-03-02 14:26:00,
2013-03-02 08:31:00,24.8,18.3,30.16,North,0,0.0,0.0,76,0.00,CLR,BKN,0.00,WeatherDisplay:10.37,2013-03-02 14:31:00,
2013-03-02 08:36:00,24.8,18.3,30.16,North,0,0.0,0.0,76,0.00,CLR,BKN,0.00,WeatherDisplay:10.37,2013-03-02 14:36:00,
2013-03-02 08:41:00,24.8,18.3,30.16,NNW,338,0.0,0.0,76,0.00,CLR,BKN,0.00,WeatherDisplay:10.37,2013-03-02 14:41:00,
2013-03-02 08:46:00,25.2,18.7,30.16,NNW,338,0.0,0.0,76,0.00,CLR,BKN,0.00,WeatherDisplay:10.37,2013-03-02 14:46:00,
2013-03-02 08:51:00,25.5,18.7,30.16,NNW,338,0.2,0.2,75,0.00,CLR,BKN,0.00,WeatherDisplay:10.37,2013-03-02 14:51:00,
2013-03-02 08:56:00,25.5,18.7,30.16,North,0,0.0,0.0,75,0.00,CLR,BKN,0.00,WeatherDisplay:10.37,2013-03-02 14:56:00,
2013-03-02 09:01:00,25.9,19.0,30.16,NNW,338,0.0,0.0,75,0.00,CLR,BKN,0.00,WeatherDisplay:10.37,2013-03-02 15:01:00,
2013-03-02 09:06:00,26.1,19.2,30.16,North,0,0.0,0.0,75,0.00,CLR,BKN,0.00,WeatherDisplay:10.37,2013-03-02 15:06:00,
2013-03-02 09:11:00,26.2,19.1,30.16,North,0,0.7,1.1,74,0.00,CLR,BKN,0.00,WeatherDisplay:10.37,2013-03-02 15:11:00,
2013-03-02 09:16:00,26.2,18.8,30.16,North,0,0.2,0.2,73,0.00,CLR,BKN,0.00,WeatherDisplay:10.37,2013-03-02 15:16:00,
2013-03-02 09:21:00,26.6,19.1,30.16,NNW,338,0.0,0.0,73,0.00,CLR,BKN,0.00,WeatherDisplay:10.37,2013-03-02 15:21:00,
2013-03-02 09:26:00,26.8,19.3,30.16,NNW,338,0.0,0.0,73,0.00,CLR,BKN,0.00,WeatherDisplay:10.37,2013-03-02 15:26:00,
2013-03-02 09:31:00,27.0,19.5,30.16,North,0,0.0,0.0,73,0.00,CLR,BKN,0.00,WeatherDisplay:10.37,2013-03-02 15:31:00,
2013-03-02 09:36:00,27.3,19.8,30.16,NNW,338,0.0,0.0,73,0.00,CLR,BKN,0.00,WeatherDisplay:10.37,2013-03-02 15:36:00,
2013-03-02 09:41:00,27.9,20.6,30.16,NNW,338,0.0,0.0,74,0.00,CLR,BKN,0.00,WeatherDisplay:10.37,2013-03-02 15:41:00,
2013-03-02 09:46:00,28.4,21.2,30.16,NNW,338,0.0,1.1,74,0.00,CLR,BKN,0.00,WeatherDisplay:10.37,2013-03-02 15:46:00,
2013-03-02 09:51:00,28.6,20.7,30.16,NNW,338,0.2,0.2,72,0.00,CLR,BKN,0.00,WeatherDisplay:10.37,2013-03-02 15:51:00,
2013-03-02 09:56:00,28.8,20.9,30.16,NW,315,0.0,0.0,72,0.00,CLR,BKN,0.00,WeatherDisplay:10.37,2013-03-02 15:56:00,
2013-03-02 10:01:00,29.1,21.2,30.16,NNW,338,0.2,0.2,72,0.00,CLR,BKN,0.00,WeatherDisplay:10.37,2013-03-02 16:01:00,
2013-03-02 10:06:00,29.3,21.1,30.16,NNW,338,0.0,0.0,71,0.00,CLR,BKN,0.00,WeatherDisplay:10.37,2013-03-02 16:06:00,
2013-03-02 10:11:00,29.5,20.9,30.16,North,0,0.5,0.5,70,0.00,CLR,BKN,0.00,WeatherDisplay:10.37,2013-03-02 16:11:00,
2013-03-02 10:16:00,29.5,20.6,30.17,NNW,338,0.2,1.1,69,0.00,CLR,BKN,0.00,WeatherDisplay:10.37,2013-03-02 16:16:00,
2013-03-02 10:21:00,29.7,20.7,30.17,NNE,22,0.0,0.0,69,0.00,CLR,BKN,0.00,WeatherDisplay:10.37,2013-03-02 16:21:00,
2013-03-02 10:26:00,30.0,20.7,30.16,NNW,338,0.5,0.5,68,0.00,CLR,BKN,0.00,WeatherDisplay:10.37,2013-03-02 16:26:00,
2013-03-02 10:31:00,30.0,20.4,30.16,NE,45,0.7,1.1,67,0.00,CLR,BKN,0.00,WeatherDisplay:10.37,2013-03-02 16:31:00,
2013-03-02 10:36:00,30.7,20.7,30.16,North,0,0.0,0.0,66,0.00,CLR,BKN,0.00,WeatherDisplay:10.37,2013-03-02 16:36:00,
2013-03-02 10:41:00,31.1,21.1,30.17,NNW,338,0.0,0.0,66,0.00,CLR,BKN,0.00,WeatherDisplay:10.37,2013-03-02 16:41:00,
2013-03-02 10:46:00,31.5,21.4,30.17,North,0,0.5,0.5,66,0.00,CLR,BKN,0.00,WeatherDisplay:10.37,2013-03-02 16:46:00,
2013-03-02 10:51:00,31.5,21.4,30.16,North,0,0.0,0.0,66,0.00,CLR,BKN,0.00,WeatherDisplay:10.37,2013-03-02 16:51:00,
2013-03-02 10:56:00,32.0,21.9,30.17,NNW,338,0.0,0.0,66,0.00,CLR,BKN,0.00,WeatherDisplay:10.37,2013-03-02 16:56:00,
2013-03-02 11:01:00,32.0,21.9,30.16,North,0,0.0,1.1,66,0.00,CLR,BKN,0.00,WeatherDisplay:10.37,2013-03-02 17:01:00,
2013-03-02 11:06:00,32.7,23.0,30.17,North,0,0.0,0.0,67,0.00,CLR,BKN,0.00,WeatherDisplay:10.37,2013-03-02 17:06:00,
2013-03-02 11:11:00,32.9,22.8,30.17,North,0,0.0,0.0,66,0.00,CLR,BKN,0.00,WeatherDisplay:10.37,2013-03-02 17:11:00,
2013-03-02 11:16:00,33.1,22.6,30.17,NNW,338,0.0,1.1,65,0.00,CLR,BKN,0.00,WeatherDisplay:10.37,2013-03-02 17:16:00,
2013-03-02 11:21:00,33.3,23.1,30.17,North,0,0.0,0.0,66,0.00,CLR,BKN,0.00,WeatherDisplay:10.37,2013-03-02 17:21:00,
2013-03-02 11:26:00,33.3,22.8,30.17,North,0,0.0,0.0,65,0.00,CLR,BKN,0.00,WeatherDisplay:10.37,2013-03-02 17:26:00,
2013-03-02 11:31:00,33.1,22.2,30.17,NNE,22,0.0,0.0,64,0.00,CLR,BKN,0.00,WeatherDisplay:10.37,2013-03-02 17:31:00,
2013-03-02 11:36:00,33.3,22.0,30.16,NNW,338,0.5,0.0,63,0.00,CLR,BKN,0.00,WeatherDisplay:10.37,2013-03-02 17:36:00,
2013-03-02 11:41:00,33.4,22.6,30.16,NNW,338,0.0,0.0,64,0.00,CLR,BKN,0.00,WeatherDisplay:10.37,2013-03-02 17:41:00,
2013-03-02 11:46:00,33.6,23.1,30.16,NNW,338,0.0,0.0,65,0.00,CLR,BKN,0.00,WeatherDisplay:10.37,2013-03-02 17:46:00,
2013-03-02 11:51:00,33.8,22.9,30.16,North,0,0.0,0.0,64,0.00,CLR,BKN,0.00,WeatherDisplay:10.37,2013-03-02 17:51:00,
2013-03-02 11:56:00,34.0,23.4,30.16,NNW,338,0.0,0.0,65,0.00,CLR,BKN,0.00,WeatherDisplay:10.37,2013-03-02 17:56:00,
2013-03-02 12:01:00,33.6,22.4,30.16,North,0,0.0,0.0,63,0.00,CLR,BKN,0.00,WeatherDisplay:10.37,2013-03-02 18:01:00,
2013-03-02 12:06:00,33.6,22.7,30.16,NNW,338,0.0,0.0,64,0.00,CLR,BKN,0.00,WeatherDisplay:10.37,2013-03-02 18:06:00,
2013-03-02 12:11:00,34.0,23.1,30.15,NNW,338,0.0,0.0,64,0.00,CLR,BKN,0.00,WeatherDisplay:10.37,2013-03-02 18:11:00,
2013-03-02 12:16:00,33.8,22.9,30.15,North,0,1.1,0.0,64,0.00,CLR,BKN,0.00,WeatherDisplay:10.37,2013-03-02 18:16:00,
2013-03-02 12:21:00,34.0,22.7,30.15,North,0,0.0,0.0,63,0.00,CLR,BKN,0.00,WeatherDisplay:10.37,2013-03-02 18:21:00,
2013-03-02 12:26:00,34.2,23.2,30.15,NNW,338,0.0,0.0,64,0.00,CLR,BKN,0.00,WeatherDisplay:10.37,2013-03-02 18:26:00,
2013-03-02 12:31:00,34.3,23.4,30.15,North,0,0.0,0.0,64,0.00,CLR,BKN,0.00,WeatherDisplay:10.37,2013-03-02 18:31:00,
2013-03-02 12:36:00,34.2,22.9,30.15,NNE,22,0.2,0.2,63,0.00,CLR,BKN,0.00,WeatherDisplay:10.37,2013-03-02 18:36:00,
2013-03-02 12:41:00,34.0,23.1,30.15,NW,315,0.0,0.0,64,0.00,CLR,BKN,0.00,WeatherDisplay:10.37,2013-03-02 18:41:00,
2013-03-02 12:46:00,34.3,23.8,30.15,NNW,338,0.0,0.0,65,0.00,CLR,BKN,0.00,WeatherDisplay:10.37,2013-03-02 18:46:00,
2013-03-02 12:51:00,34.2,22.5,30.15,NNW,338,0.0,0.0,62,0.00,CLR,BKN,0.00,WeatherDisplay:10.37,2013-03-02 18:51:00,
2013-03-02 12:56:00,34.2,22.5,30.15,NNW,338,0.2,0.2,62,0.00,CLR,BKN,0.00,WeatherDisplay:10.37,2013-03-02 18:56:00,
2013-03-02 13:01:00,34.2,23.2,30.15,NNW,338,0.5,1.1,64,0.00,CLR,BKN,0.00,WeatherDisplay:10.37,2013-03-02 19:01:00,
2013-03-02 13:06:00,34.2,22.9,30.15,North,0,0.0,0.0,63,0.00,CLR,BKN,0.00,WeatherDisplay:10.37,2013-03-02 19:06:00,
2013-03-02 13:11:00,33.8,22.5,30.14,NNE,22,0.5,0.5,63,0.00,CLR,BKN,0.00,WeatherDisplay:10.37,2013-03-02 19:11:00,
2013-03-02 13:16:00,33.1,21.5,30.14,North,0,0.0,0.0,62,0.00,CLR,BKN,0.00,WeatherDisplay:10.37,2013-03-02 19:16:00,
2013-03-02 13:21:00,33.3,22.4,30.15,NNW,338,0.5,0.5,64,0.00,CLR,BKN,0.00,WeatherDisplay:10.37,2013-03-02 19:21:00,
2013-03-02 13:26:00,33.4,22.6,30.14,NNW,338,0.0,1.1,64,0.00,CLR,BKN,0.00,WeatherDisplay:10.37,2013-03-02 19:26:00,
2013-03-02 13:31:00,33.3,22.0,30.14,NNW,338,0.0,0.0,63,0.00,CLR,BKN,0.00,WeatherDisplay:10.37,2013-03-02 19:31:00,
2013-03-02 13:36:00,33.1,22.2,30.14,NNW,338,0.0,0.0,64,0.00,CLR,BKN,0.00,WeatherDisplay:10.37,2013-03-02 19:36:00,
2013-03-02 13:41:00,32.7,21.5,30.14,NNW,338,0.0,0.0,63,0.00,CLR,BKN,0.00,WeatherDisplay:10.37,2013-03-02 19:41:00,
2013-03-02 13:46:00,32.4,21.2,30.14,NNW,338,0.2,1.1,63,0.00,CLR,BKN,0.00,WeatherDisplay:10.37,2013-03-02 19:46:00,
2013-03-02 13:51:00,32.4,21.5,30.14,NNW,338,0.0,0.0,64,0.00,CLR,BKN,0.00,WeatherDisplay:10.37,2013-03-02 19:51:00,
2013-03-02 13:56:00,32.5,21.7,30.13,NW,315,0.0,0.0,64,0.00,CLR,BKN,0.00,WeatherDisplay:10.37,2013-03-02 19:56:00,
2013-03-02 14:01:00,32.7,21.5,30.13,NNW,338,0.0,0.0,63,0.00,CLR,BKN,0.00,WeatherDisplay:10.37,2013-03-02 20:01:00,
2013-03-02 14:06:00,32.7,21.5,30.13,North,0,0.5,0.5,63,0.00,CLR,BKN,0.00,WeatherDisplay:10.37,2013-03-02 20:06:00,
2013-03-02 14:11:00,32.5,21.0,30.13,North,0,0.5,0.5,62,0.00,CLR,BKN,0.00,WeatherDisplay:10.37,2013-03-02 20:11:00,
2013-03-02 14:16:00,32.4,20.8,30.13,North,0,0.0,0.0,62,0.00,CLR,BKN,0.00,WeatherDisplay:10.37,2013-03-02 20:16:00,
2013-03-02 14:21:00,32.7,21.1,30.13,North,0,0.2,0.0,62,0.00,CLR,BKN,0.00,WeatherDisplay:10.37,2013-03-02 20:21:00,
2013-03-02 14:26:00,32.5,20.2,30.13,North,0,0.0,0.0,60,0.00,CLR,BKN,0.00,WeatherDisplay:10.37,2013-03-02 20:26:00,
2013-03-02 14:31:00,32.2,19.8,30.14,NNW,338,0.2,0.2,60,0.00,CLR,BKN,0.00,WeatherDisplay:10.37,2013-03-02 20:31:00,
2013-03-02 14:36:00,32.4,20.4,30.14,NNW,338,0.0,0.0,61,0.00,CLR,BKN,0.00,WeatherDisplay:10.37,2013-03-02 20:36:00,
2013-03-02 14:41:00,32.4,20.0,30.14,NNW,338,0.0,0.0,60,0.00,CLR,BKN,0.00,WeatherDisplay:10.37,2013-03-02 20:41:00,
2013-03-02 14:46:00,32.2,20.2,30.13,NW,315,0.0,0.0,61,0.00,CLR,BKN,0.00,WeatherDisplay:10.37,2013-03-02 20:46:00,
2013-03-02 14:51:00,32.2,20.6,30.14,NW,315,0.0,0.0,62,0.00,CLR,BKN,0.00,WeatherDisplay:10.37,2013-03-02 20:51:00,
2013-03-02 14:56:00,32.4,21.2,30.13,WNW,292,0.0,0.0,63,0.00,CLR,BKN,0.00,WeatherDisplay:10.37,2013-03-02 20:56:00,
2013-03-02 15:01:00,32.4,21.2,30.13,NW,315,0.0,0.0,63,0.00,CLR,BKN,0.00,WeatherDisplay:10.37,2013-03-02 21:01:00,
2013-03-02 15:06:00,32.5,21.0,30.13,NNW,338,0.0,0.0,62,0.00,CLR,BKN,0.00,WeatherDisplay:10.37,2013-03-02 21:06:00,
2013-03-02 15:11:00,32.4,20.8,30.13,NNW,338,0.0,0.0,62,0.00,CLR,BKN,0.00,WeatherDisplay:10.37,2013-03-02 21:11:00,
2013-03-02 15:16:00,32.4,20.8,30.13,NW,315,0.0,0.0,62,0.00,CLR,BKN,0.00,WeatherDisplay:10.37,2013-03-02 21:16:00,
2013-03-02 15:21:00,32.2,21.0,30.13,NNW,338,0.0,0.0,63,0.00,CLR,BKN,0.00,WeatherDisplay:10.37,2013-03-02 21:21:00,
2013-03-02 15:26:00,32.0,20.4,30.13,NNW,338,0.0,0.0,62,0.00,CLR,BKN,0.00,WeatherDisplay:10.37,2013-03-02 21:26:00,
2013-03-02 15:31:00,32.0,20.4,30.13,North,0,0.0,0.0,62,0.00,CLR,BKN,0.00,WeatherDisplay:10.37,2013-03-02 21:31:00,
2013-03-02 15:36:00,31.5,18.8,30.13,NW,315,0.0,0.0,59,0.00,CLR,BKN,0.00,WeatherDisplay:10.37,2013-03-02 21:36:00,
2013-03-02 15:41:00,31.3,19.0,30.13,NNW,338,0.0,0.0,60,0.00,CLR,BKN,0.00,WeatherDisplay:10.37,2013-03-02 21:41:00,
2013-03-02 15:46:00,30.9,17.9,30.14,NNE,22,0.0,0.0,58,0.00,CLR,BKN,0.00,WeatherDisplay:10.37,2013-03-02 21:46:00,
2013-03-02 15:51:00,30.6,17.9,30.14,NNW,338,0.0,0.0,59,0.00,CLR,BKN,0.00,WeatherDisplay:10.37,2013-03-02 21:51:00,
2013-03-02 15:56:00,30.4,17.4,30.13,North,0,0.0,0.0,58,0.00,CLR,BKN,0.00,WeatherDisplay:10.37,2013-03-02 21:56:00,
2013-03-02 16:01:00,30.2,17.6,30.13,North,0,0.0,0.0,59,0.00,CLR,BKN,0.00,WeatherDisplay:10.37,2013-03-02 22:01:00,
2013-03-02 16:06:00,30.4,18.1,30.13,NNW,338,0.5,0.5,60,0.00,CLR,BKN,0.00,WeatherDisplay:10.37,2013-03-02 22:06:00,
2013-03-02 16:11:00,30.2,17.6,30.13,North,0,0.0,1.1,59,0.00,CLR,BKN,0.00,WeatherDisplay:10.37,2013-03-02 22:11:00,
2013-03-02 16:16:00,29.8,17.2,30.13,NNW,338,0.0,0.0,59,0.00,CLR,BKN,0.00,WeatherDisplay:10.37,2013-03-02 22:16:00,
2013-03-02 16:21:00,29.7,17.5,30.13,NNW,338,0.0,1.1,60,0.00,CLR,BKN,0.00,WeatherDisplay:10.37,2013-03-02 22:21:00,
2013-03-02 16:26:00,29.5,17.3,30.13,NNW,338,0.0,0.0,60,0.00,CLR,BKN,0.00,WeatherDisplay:10.37,2013-03-02 22:26:00,
2013-03-02 16:31:00,29.3,17.5,30.13,NNW,338,0.0,0.0,61,0.00,CLR,BKN,0.00,WeatherDisplay:10.37,2013-03-02 22:31:00,
2013-03-02 16:36:00,29.1,17.3,30.13,NNW,338,0.0,0.2,61,0.00,CLR,BKN,0.00,WeatherDisplay:10.37,2013-03-02 22:36:00,
2013-03-02 16:41:00,28.9,17.5,30.13,NNW,338,0.0,0.0,62,0.00,CLR,BKN,0.00,WeatherDisplay:10.37,2013-03-02 22:41:00,
2013-03-02 16:46:00,29.1,17.7,30.13,NNW,338,0.0,0.0,62,0.00,CLR,BKN,0.00,WeatherDisplay:10.37,2013-03-02 22:46:00,
2013-03-02 16:51:00,29.1,17.7,30.13,NNW,338,0.0,0.0,62,0.00,CLR,BKN,0.00,WeatherDisplay:10.37,2013-03-02 22:51:00,
2013-03-02 16:56:00,29.1,18.1,30.14,NNW,338,0.0,0.0,63,0.00,CLR,BKN,0.00,WeatherDisplay:10.37,2013-03-02 22:56:00,
2013-03-02 17:01:00,29.3,18.3,30.14,NNW,338,0.0,0.0,63,0.00,CLR,BKN,0.00,WeatherDisplay:10.37,2013-03-02 23:01:00,
2013-03-02 17:06:00,29.1,18.5,30.14,NNW,338,0.0,0.0,64,0.00,CLR,BKN,0.00,WeatherDisplay:10.37,2013-03-02 23:06:00,
2013-03-02 17:11:00,28.8,18.5,30.14,NNW,338,0.0,0.0,65,0.00,CLR,BKN,0.00,WeatherDisplay:10.37,2013-03-02 23:11:00,
2013-03-02 17:16:00,28.4,18.1,30.14,North,0,0.0,0.0,65,0.00,CLR,BKN,0.00,WeatherDisplay:10.37,2013-03-02 23:16:00,
2013-03-02 17:21:00,28.4,18.5,30.14,NW,315,0.0,0.0,66,0.00,CLR,BKN,0.00,WeatherDisplay:10.37,2013-03-02 23:21:00,
2013-03-02 17:26:00,28.4,18.5,30.14,NW,315,0.0,0.0,66,0.00,CLR,BKN,0.00,WeatherDisplay:10.37,2013-03-02 23:26:00,
2013-03-02 17:31:00,28.0,18.1,30.15,NW,315,0.0,0.0,66,0.00,CLR,BKN,0.00,WeatherDisplay:10.37,2013-03-02 23:31:00,
2013-03-02 17:36:00,27.9,18.0,30.15,NW,315,0.0,0.0,66,0.00,CLR,BKN,0.00,WeatherDisplay:10.37,2013-03-02 23:36:00,
2013-03-02 17:41:00,27.7,18.1,30.15,NNW,338,0.0,0.0,67,0.00,CLR,BKN,0.00,WeatherDisplay:10.37,2013-03-02 23:41:00,
2013-03-02 17:46:00,28.0,19.5,30.14,NNW,338,0.0,0.0,70,0.00,CLR,BKN,0.00,WeatherDisplay:10.37,2013-03-02 23:46:00,
2013-03-02 17:51:00,28.0,18.5,30.14,NNW,338,0.0,0.0,67,0.00,CLR,BKN,0.00,WeatherDisplay:10.37,2013-03-02 23:51:00,
2013-03-02 17:56:00,27.5,18.0,30.14,NW,315,0.0,0.0,67,0.00,CLR,BKN,0.00,WeatherDisplay:10.37,2013-03-02 23:56:00,
2013-03-02 18:01:00,27.3,17.8,30.15,North,0,0.0,0.0,67,0.00,CLR,BKN,0.00,WeatherDisplay:10.37,2013-03-03 00:01:00,
2013-03-02 18:06:00,26.8,17.3,30.15,NW,315,0.0,0.0,67,0.00,CLR,BKN,0.00,WeatherDisplay:10.37,2013-03-03 00:06:00,
2013-03-02 18:11:00,26.2,17.1,30.15,NNW,338,0.0,0.0,68,0.00,CLR,BKN,0.00,WeatherDisplay:10.37,2013-03-03 00:11:00,
2013-03-02 18:16:00,26.2,17.1,30.15,NW,315,0.0,0.0,68,0.00,CLR,BKN,0.00,WeatherDisplay:10.37,2013-03-03 00:16:00,
2013-03-02 18:21:00,26.2,17.1,30.15,NW,315,0.0,0.0,68,0.00,CLR,BKN,0.00,WeatherDisplay:10.37,2013-03-03 00:21:00,
2013-03-02 18:26:00,26.1,17.3,30.15,NW,315,0.0,0.0,69,0.00,CLR,BKN,0.00,WeatherDisplay:10.37,2013-03-03 00:26:00,
2013-03-02 18:31:00,25.7,17.3,30.15,NW,315,0.0,0.0,70,0.00,CLR,BKN,0.00,WeatherDisplay:10.37,2013-03-03 00:31:00,
2013-03-02 18:36:00,26.1,17.6,30.15,NW,315,0.0,0.0,70,0.00,CLR,BKN,0.00,WeatherDisplay:10.37,2013-03-03 00:36:00,
2013-03-02 18:41:00,25.9,17.4,30.15,NW,315,0.0,0.0,70,0.00,CLR,BKN,0.00,WeatherDisplay:10.37,2013-03-03 00:41:00,
2013-03-02 18:46:00,25.7,17.3,30.15,NW,315,0.0,0.0,70,0.00,CLR,BKN,0.00,WeatherDisplay:10.37,2013-03-03 00:46:00,
2013-03-02 18:51:00,25.5,17.1,30.15,NW,315,0.0,0.0,70,0.00,CLR,BKN,0.00,WeatherDisplay:10.37,2013-03-03 00:51:00,
2013-03-02 18:56:00,25.5,17.1,30.15,NW,315,0.0,0.0,70,0.00,CLR,BKN,0.00,WeatherDisplay:10.37,2013-03-03 00:56:00,
2013-03-02 19:01:00,25.5,17.1,30.15,NW,315,0.0,0.0,70,0.00,CLR,BKN,0.00,WeatherDisplay:10.37,2013-03-03 01:01:00,
2013-03-02 19:06:00,25.3,16.9,30.15,NW,315,0.0,0.0,70,0.00,CLR,BKN,0.00,WeatherDisplay:10.37,2013-03-03 01:06:00,
2013-03-02 19:11:00,25.2,16.7,30.15,NW,315,0.0,0.0,70,0.00,CLR,BKN,0.00,WeatherDisplay:10.37,2013-03-03 01:11:00,
2013-03-02 19:16:00,24.8,16.4,30.15,NW,315,0.0,0.0,70,0.00,CLR,BKN,0.00,WeatherDisplay:10.37,2013-03-03 01:16:00,
2013-03-02 19:21:00,24.8,16.1,30.15,NNW,338,0.0,0.0,69,0.00,CLR,BKN,0.00,WeatherDisplay:10.37,2013-03-03 01:21:00,
2013-03-02 19:26:00,24.4,15.7,30.15,NNW,338,0.0,0.0,69,0.00,CLR,BKN,0.00,WeatherDisplay:10.37,2013-03-03 01:26:00,
2013-03-02 19:31:00,24.4,15.7,30.15,NNW,338,0.0,0.0,69,0.00,CLR,BKN,0.00,WeatherDisplay:10.37,2013-03-03 01:31:00,
2013-03-02 19:36:00,24.1,15.4,30.15,NNW,338,0.0,0.0,69,0.00,CLR,BKN,0.00,WeatherDisplay:10.37,2013-03-03 01:36:00,
2013-03-02 19:41:00,24.1,15.4,30.15,NW,315,0.0,0.0,69,0.00,CLR,BKN,0.00,WeatherDisplay:10.37,2013-03-03 01:41:00,
2013-03-02 19:46:00,23.7,15.4,30.15,NW,315,0.0,0.0,70,0.00,CLR,BKN,0.00,WeatherDisplay:10.37,2013-03-03 01:46:00,
2013-03-02 19:51:00,23.4,15.0,30.15,NW,315,0.0,0.0,70,0.00,CLR,BKN,0.00,WeatherDisplay:10.37,2013-03-03 01:51:00,
2013-03-02 19:56:00,23.2,14.8,30.15,NNW,338,0.0,0.0,70,0.00,CLR,BKN,0.00,WeatherDisplay:10.37,2013-03-03 01:56:00,
2013-03-02 20:01:00,23.0,14.7,30.15,NNW,338,0.0,0.0,70,0.00,CLR,BKN,0.00,WeatherDisplay:10.37,2013-03-03 02:01:00,
2013-03-02 20:06:00,23.0,15.0,30.15,NNW,338,0.0,0.0,71,0.00,CLR,BKN,0.00,WeatherDisplay:10.37,2013-03-03 02:06:00,
2013-03-02 20:11:00,23.0,15.0,30.15,NW,315,0.0,0.0,71,0.00,CLR,BKN,0.00,WeatherDisplay:10.37,2013-03-03 02:11:00,
2013-03-02 20:16:00,22.8,14.8,30.15,NNW,338,0.0,0.0,71,0.00,CLR,BKN,0.00,WeatherDisplay:10.37,2013-03-03 02:16:00,
2013-03-02 20:21:00,22.6,14.6,30.15,NNW,338,0.0,0.0,71,0.00,CLR,BKN,0.00,WeatherDisplay:10.37,2013-03-03 02:21:00,
2013-03-02 20:26:00,22.6,14.6,30.15,NW,315,0.0,0.0,71,0.00,CLR,BKN,0.00,WeatherDisplay:10.37,2013-03-03 02:26:00,
2013-03-02 20:31:00,22.3,14.3,30.15,NW,315,0.0,0.0,71,0.00,CLR,BKN,0.00,WeatherDisplay:10.37,2013-03-03 02:31:00,
2013-03-02 20:36:00,22.1,14.1,30.15,NW,315,0.0,0.0,71,0.00,CLR,BKN,0.00,WeatherDisplay:10.37,2013-03-03 02:36:00,
2013-03-02 20:41:00,21.9,14.0,30.14,NNW,338,0.0,0.0,71,0.00,CLR,BKN,0.00,WeatherDisplay:10.37,2013-03-03 02:41:00,
2013-03-02 20:46:00,21.6,13.6,30.14,NNW,338,0.0,0.0,71,0.00,CLR,BKN,0.00,WeatherDisplay:10.37,2013-03-03 02:46:00,
2013-03-02 20:51:00,21.4,13.4,30.14,NW,315,0.0,0.0,71,0.00,CLR,BKN,0.00,WeatherDisplay:10.37,2013-03-03 02:51:00,
2013-03-02 20:56:00,21.2,13.3,30.15,NW,315,0.0,0.0,71,0.00,CLR,BKN,0.00,WeatherDisplay:10.37,2013-03-03 02:56:00,
2013-03-02 21:01:00,21.0,13.4,30.15,WNW,292,0.0,0.0,72,0.00,CLR,BKN,0.00,WeatherDisplay:10.37,2013-03-03 03:01:00,
2013-03-02 21:06:00,20.8,13.2,30.15,NW,315,0.0,0.0,72,0.00,CLR,BKN,0.00,WeatherDisplay:10.37,2013-03-03 03:06:00,
2013-03-02 21:11:00,21.0,13.4,30.15,NW,315,0.0,0.0,72,0.00,CLR,BKN,0.00,WeatherDisplay:10.37,2013-03-03 03:11:00,
2013-03-02 21:16:00,21.0,13.4,30.15,NW,315,0.0,0.0,72,0.00,CLR,BKN,0.00,WeatherDisplay:10.37,2013-03-03 03:16:00,
2013-03-02 21:21:00,20.7,13.1,30.15,NW,315,0.0,0.0,72,0.00,CLR,BKN,0.00,WeatherDisplay:10.37,2013-03-03 03:21:00,
2013-03-02 21:26:00,20.5,12.9,30.15,NW,315,0.0,0.0,72,0.00,CLR,BKN,0.00,WeatherDisplay:10.37,2013-03-03 03:26:00,
2013-03-02 21:31:00,20.5,12.9,30.15,NW,315,0.0,0.0,72,0.00,CLR,BKN,0.00,WeatherDisplay:10.37,2013-03-03 03:31:00,
2013-03-02 21:36:00,20.3,12.7,30.15,NW,315,0.0,0.0,72,0.00,CLR,BKN,0.00,WeatherDisplay:10.37,2013-03-03 03:36:00,
2013-03-02 21:41:00,20.1,12.5,30.15,NW,315,0.0,0.0,72,0.00,CLR,BKN,0.00,WeatherDisplay:10.37,2013-03-03 03:41:00,
2013-03-02 21:46:00,20.1,12.5,30.15,NW,315,0.0,0.0,72,0.00,CLR,BKN,0.00,WeatherDisplay:10.37,2013-03-03 03:46:00,
2013-03-02 21:51:00,19.9,12.4,30.15,NW,315,0.0,0.0,72,0.00,CLR,BKN,0.00,WeatherDisplay:10.37,2013-03-03 03:51:00,
2013-03-02 21:56:00,19.9,12.4,30.15,NW,315,0.0,0.0,72,0.00,CLR,BKN,0.00,WeatherDisplay:10.37,2013-03-03 03:56:00,
2013-03-02 22:01:00,19.8,12.2,30.15,NW,315,0.0,0.0,72,0.00,CLR,BKN,0.00,WeatherDisplay:10.37,2013-03-03 04:01:00,
2013-03-02 22:06:00,19.6,12.0,30.15,NW,315,0.0,0.0,72,0.00,CLR,BKN,0.00,WeatherDisplay:10.37,2013-03-03 04:06:00,
2013-03-02 22:11:00,19.2,12.0,30.15,NW,315,0.0,0.0,73,0.00,CLR,BKN,0.00,WeatherDisplay:10.37,2013-03-03 04:11:00,
2013-03-02 22:16:00,19.2,12.0,30.15,NW,315,0.0,0.0,73,0.00,CLR,BKN,0.00,WeatherDisplay:10.37,2013-03-03 04:16:00,
2013-03-02 22:21:00,19.4,12.2,30.15,NW,315,0.0,0.0,73,0.00,CLR,BKN,0.00,WeatherDisplay:10.37,2013-03-03 04:21:00,
2013-03-02 22:26:00,19.2,12.0,30.15,NW,315,0.0,0.0,73,0.00,CLR,BKN,0.00,WeatherDisplay:10.37,2013-03-03 04:26:00,
2013-03-02 22:31:00,19.0,11.8,30.15,NNW,338,0.0,0.0,73,0.00,CLR,BKN,0.00,WeatherDisplay:10.37,2013-03-03 04:31:00,
2013-03-02 22:36:00,19.0,11.8,30.15,NW,315,0.0,0.0,73,0.00,CLR,BKN,0.00,WeatherDisplay:10.37,2013-03-03 04:36:00,
2013-03-02 22:41:00,18.9,11.6,30.15,NNW,338,0.0,0.0,73,0.00,CLR,BKN,0.00,WeatherDisplay:10.37,2013-03-03 04:41:00,
2013-03-02 22:46:00,18.7,11.5,30.14,NE,45,0.0,0.0,73,0.00,CLR,BKN,0.00,WeatherDisplay:10.37,2013-03-03 04:46:00,
2013-03-02 22:51:00,18.3,10.8,30.14,NE,45,0.0,0.0,72,0.00,CLR,BKN,0.00,WeatherDisplay:10.37,2013-03-03 04:51:00,
2013-03-02 22:56:00,18.3,10.8,30.14,NE,45,0.0,0.0,72,0.00,CLR,BKN,0.00,WeatherDisplay:10.37,2013-03-03 04:56:00,
2013-03-02 23:00:00,18.5,11.3,30.14,NE,45,0.0,0.0,73,0.00,CLR,BKN,0.00,WeatherDisplay:10.37,2013-03-03 05:00:00,
2013-03-02 23:05:00,18.5,11.3,30.13,NE,45,0.0,0.0,73,0.00,CLR,BKN,0.00,WeatherDisplay:10.37,2013-03-03 05:05:00,
2013-03-02 23:10:00,18.3,10.8,30.13,ENE,68,0.0,0.0,72,0.00,CLR,BKN,0.00,WeatherDisplay:10.37,2013-03-03 05:10:00,
2013-03-02 23:15:00,18.1,10.9,30.13,WSW,248,0.0,0.0,73,0.00,CLR,BKN,0.00,WeatherDisplay:10.37,2013-03-03 05:15:00,
2013-03-02 23:20:00,18.0,10.8,30.13,West,270,0.0,0.0,73,0.00,CLR,BKN,0.00,WeatherDisplay:10.37,2013-03-03 05:20:00,
2013-03-02 23:25:00,17.8,10.6,30.13,West,270,0.0,0.0,73,0.00,CLR,BKN,0.00,WeatherDisplay:10.37,2013-03-03 05:25:00,
2013-03-02 23:30:00,17.8,10.6,30.13,WNW,292,0.0,0.0,73,0.00,CLR,BKN,0.00,WeatherDisplay:10.37,2013-03-03 05:30:00,
2013-03-02 23:35:00,17.6,10.4,30.13,NW,315,0.0,0.0,73,0.00,CLR,BKN,0.00,WeatherDisplay:10.37,2013-03-03 05:35:00,
2013-03-02 23:40:00,17.8,10.6,30.13,WNW,292,0.0,0.0,73,0.00,CLR,BKN,0.00,WeatherDisplay:10.37,2013-03-03 05:40:00,
2013-03-02 23:45:00,17.6,10.4,30.13,NW,315,0.0,0.0,73,0.00,CLR,BKN,0.00,WeatherDisplay:10.37,2013-03-03 05:45:00,
2013-03-02 23:50:00,17.6,10.4,30.13,NW,315,0.0,0.0,73,0.00,CLR,BKN,0.00,WeatherDisplay:10.37,2013-03-03 05:50:00,
2013-03-02 23:55:00,17.4,10.5,30.13,NW,315,0.0,0.0,74,0.00,CLR,BKN,0.00,WeatherDisplay:10.37,2013-03-03 05:55:00,